Time;durP1;ratioP1;P1;durP2;ratioP2;P2;SDS_P1;SDS_P2;PMS_P1;PMS_P2;Temp;Humidity;BMP_temperature;BMP_pressure;BME280_temperature;BME280_humidity;BME280_pressure;Samples;Min_cycle;Max_cycle;Signal;HPM_P1;HPM_P2
2021/12/03 00:02:00;;;;;;;8.75;4.78;;;-0.30;99.90;;;;;;5031076;28;20033;-54
2021/12/03 00:04:25;;;;;;;4.50;3.70;;;-0.30;99.90;;;;;;5044443;28;20032;-57
2021/12/03 00:06:51;;;;;;;7.28;4.10;;;-0.30;99.90;;;;;;5048536;28;20060;-54
2021/12/03 00:09:17;;;;;;;5.68;4.28;;;-0.20;99.90;;;;;;5048262;28;20033;-51
2021/12/03 00:11:42;;;;;;;5.75;3.53;;;-0.20;99.90;;;;;;5047094;28;20037;-50
2021/12/03 00:14:08;;;;;;;8.43;3.78;;;-0.30;99.90;;;;;;5033782;28;20459;-57
2021/12/03 00:16:34;;;;;;;4.28;3.13;;;-0.30;99.90;;;;;;5028604;28;20037;-54
2021/12/03 00:18:59;;;;;;;3.65;3.20;;;-0.30;99.90;;;;;;5028044;28;20041;-54
2021/12/03 00:21:26;;;;;;;3.80;2.80;;;-0.30;99.90;;;;;;5037844;28;20040;-54
2021/12/03 00:23:53;;;;;;;5.25;3.25;;;-0.30;99.90;;;;;;5046724;28;20033;-52
2021/12/03 00:26:19;;;;;;;3.30;2.92;;;-0.30;99.90;;;;;;5047357;28;20114;-55
2021/12/03 00:28:45;;;;;;;5.13;3.50;;;-0.30;99.90;;;;;;5047829;28;20040;-53
2021/12/03 00:31:11;;;;;;;5.32;3.33;;;-0.30;99.90;;;;;;5039908;28;20033;-53
2021/12/03 00:33:37;;;;;;;5.40;3.17;;;-0.30;99.90;;;;;;5042980;28;20037;-54
2021/12/03 00:36:07;;;;;;;6.75;3.70;;;-0.30;99.90;;;;;;5035294;28;20032;-55
2021/12/03 00:38:46;;;;;;;3.95;3.53;;;-0.30;99.90;;;;;;5028005;28;20029;-55
2021/12/03 00:41:15;;;;;;;6.10;3.25;;;-0.30;99.90;;;;;;5039067;28;20091;-54
2021/12/03 00:43:46;;;;;;;4.53;3.13;;;-0.30;99.90;;;;;;5038148;28;20136;-51
2021/12/03 00:46:16;;;;;;;3.58;2.63;;;-0.30;99.90;;;;;;5029643;28;20022;-56
2021/12/03 00:48:42;;;;;;;4.30;3.33;;;-0.30;99.90;;;;;;5027610;28;20039;-56
2021/12/03 00:51:09;;;;;;;9.70;3.40;;;-0.30;99.90;;;;;;5029444;28;20489;-55
2021/12/03 00:53:36;;;;;;;2.90;2.55;;;-0.30;99.90;;;;;;5032861;28;20493;-57
2021/12/03 00:56:03;;;;;;;6.85;3.28;;;-0.30;99.90;;;;;;5045374;28;20036;-52
2021/12/03 00:58:29;;;;;;;5.18;2.47;;;-0.30;99.90;;;;;;5033792;28;20029;-51
2021/12/03 01:00:54;;;;;;;4.10;2.45;;;-0.30;99.90;;;;;;5028382;28;20034;-55
2021/12/03 01:03:20;;;;;;;4.32;3.00;;;-0.30;99.90;;;;;;5028950;28;20552;-55
2021/12/03 01:05:46;;;;;;;6.20;2.50;;;-0.30;99.90;;;;;;5046861;28;20080;-56
2021/12/03 01:08:11;;;;;;;2.00;1.70;;;-0.30;99.90;;;;;;5047047;28;20483;-53
2021/12/03 01:10:37;;;;;;;2.63;2.42;;;-0.30;99.90;;;;;;5043570;28;20045;-54
2021/12/03 01:13:03;;;;;;;4.10;2.22;;;-0.30;99.90;;;;;;5027837;28;20033;-52
2021/12/03 01:15:33;;;;;;;6.15;2.22;;;-0.20;99.90;;;;;;5040035;28;20036;-54
2021/12/03 01:17:59;;;;;;;3.85;2.55;;;-0.20;99.90;;;;;;5047090;28;20074;-53
2021/12/03 01:20:25;;;;;;;4.75;2.20;;;-0.30;99.90;;;;;;5046674;28;20036;-57
2021/12/03 01:22:53;;;;;;;3.38;2.00;;;-0.30;99.90;;;;;;5048561;28;20044;-57
2021/12/03 01:25:20;;;;;;;3.97;2.22;;;-0.20;99.90;;;;;;5049618;28;20089;-52
2021/12/03 01:27:47;;;;;;;1.55;1.45;;;-0.20;99.90;;;;;;5041140;28;20110;-56
2021/12/03 01:30:17;;;;;;;4.38;1.30;;;-0.10;99.90;;;;;;5029918;28;20037;-56
2021/12/03 01:32:44;;;;;;;2.33;1.65;;;-0.20;99.90;;;;;;5029952;28;20040;-54
2021/12/03 01:35:11;;;;;;;5.40;1.40;;;-0.20;99.90;;;;;;5035086;28;20079;-59
2021/12/03 01:37:37;;;;;;;4.60;1.55;;;-0.10;99.90;;;;;;5050794;28;20277;-56
2021/12/03 01:40:06;;;;;;;1.90;1.20;;;-0.10;99.90;;;;;;5050469;28;20029;-53
2021/12/03 01:42:32;;;;;;;1.75;1.15;;;0.00;99.90;;;;;;5039632;28;20497;-52
2021/12/03 01:44:57;;;;;;;3.65;1.45;;;0.10;99.90;;;;;;5028915;28;20033;-57
2021/12/03 01:47:23;;;;;;;2.22;1.60;;;0.20;99.90;;;;;;5030996;28;20116;-57
2021/12/03 01:49:49;;;;;;;2.25;1.23;;;0.20;99.90;;;;;;5049295;28;20029;-52
2021/12/03 01:52:14;;;;;;;3.63;1.40;;;0.30;99.90;;;;;;5033226;28;20029;-57
2021/12/03 01:54:40;;;;;;;7.65;1.58;;;0.20;99.90;;;;;;5032444;28;20105;-58
2021/12/03 01:57:06;;;;;;;4.45;1.52;;;0.30;99.90;;;;;;5034230;28;20029;-54
2021/12/03 01:59:32;;;;;;;6.40;1.77;;;0.30;99.90;;;;;;5046309;28;20428;-56
2021/12/03 02:01:58;;;;;;;2.53;1.38;;;0.30;99.90;;;;;;5048424;28;20036;-52
2021/12/03 02:04:24;;;;;;;2.67;1.40;;;0.30;99.90;;;;;;5038781;28;20026;-55
2021/12/03 02:06:49;;;;;;;4.40;1.70;;;0.20;99.90;;;;;;5030837;28;20033;-56
2021/12/03 02:09:15;;;;;;;2.30;1.48;;;0.20;99.90;;;;;;5030702;28;20039;-53
2021/12/03 02:11:41;;;;;;;3.78;2.08;;;0.20;99.90;;;;;;5030463;28;20068;-53
2021/12/03 02:14:07;;;;;;;4.88;1.40;;;0.10;99.90;;;;;;5033544;28;20866;-56
2021/12/03 02:16:32;;;;;;;4.32;1.52;;;0.10;99.90;;;;;;5050573;28;20110;-57
2021/12/03 02:18:58;;;;;;;5.40;1.50;;;0.10;99.90;;;;;;5035212;28;20037;-54
2021/12/03 02:21:23;;;;;;;2.33;1.48;;;0.20;99.90;;;;;;5031294;28;20509;-57
2021/12/03 02:23:51;;;;;;;2.67;1.60;;;0.20;99.90;;;;;;5029183;28;20065;-52
2021/12/03 02:26:17;;;;;;;1.67;1.35;;;0.30;99.90;;;;;;5030540;28;20099;-50
2021/12/03 02:28:46;;;;;;;3.65;2.00;;;0.30;99.90;;;;;;5029516;28;20144;-54
2021/12/03 02:31:15;;;;;;;2.15;1.63;;;0.30;99.90;;;;;;5048916;28;20133;-54
2021/12/03 02:33:41;;;;;;;3.95;1.77;;;0.30;99.90;;;;;;5040366;28;20744;-57
2021/12/03 02:36:07;;;;;;;2.05;1.50;;;0.30;99.90;;;;;;5030017;28;20026;-50
2021/12/03 02:38:33;;;;;;;1.42;1.33;;;0.30;99.90;;;;;;5030041;28;20040;-55
2021/12/03 02:41:00;;;;;;;3.75;1.60;;;0.30;99.90;;;;;;5030740;28;20056;-54
2021/12/03 02:43:26;;;;;;;3.92;1.92;;;0.40;99.90;;;;;;5028649;28;20056;-51
2021/12/03 02:45:52;;;;;;;3.40;2.00;;;0.40;99.90;;;;;;5046671;28;20025;-53
2021/12/03 02:48:20;;;;;;;4.90;2.00;;;0.40;99.90;;;;;;5032367;28;20083;-56
2021/12/03 02:50:49;;;;;;;3.20;1.90;;;0.40;99.90;;;;;;5029759;28;20116;-52
2021/12/03 02:53:15;;;;;;;4.05;1.95;;;0.40;99.90;;;;;;5045643;28;20029;-56
2021/12/03 02:55:41;;;;;;;4.72;1.90;;;0.40;99.90;;;;;;5029486;28;20032;-56
2021/12/03 02:58:07;;;;;;;3.13;2.30;;;0.30;99.90;;;;;;5030675;28;20092;-58
2021/12/03 03:00:34;;;;;;;2.20;1.90;;;0.40;99.90;;;;;;5028065;28;20045;-57
2021/12/03 03:02:59;;;;;;;2.72;1.77;;;0.30;99.90;;;;;;5046908;28;20112;-54
2021/12/03 03:05:26;;;;;;;5.03;2.08;;;0.30;99.90;;;;;;5032159;28;20104;-58
2021/12/03 03:07:52;;;;;;;3.00;2.20;;;0.40;99.90;;;;;;5029493;28;20032;-52
2021/12/03 03:10:24;;;;;;;4.20;1.80;;;0.30;99.90;;;;;;5029724;28;20034;-57
2021/12/03 03:12:51;;;;;;;1.83;1.60;;;0.30;99.90;;;;;;5035789;28;21251;-57
2021/12/03 03:15:17;;;;;;;5.60;1.90;;;0.30;99.90;;;;;;5047801;28;20041;-58
2021/12/03 03:17:43;;;;;;;2.38;1.65;;;0.30;99.90;;;;;;5047407;28;20112;-54
2021/12/03 03:20:10;;;;;;;4.07;1.92;;;0.30;99.90;;;;;;5047976;28;20056;-56
2021/12/03 03:22:37;;;;;;;3.70;1.42;;;0.30;99.90;;;;;;5038642;28;20051;-59
2021/12/03 03:25:05;;;;;;;1.77;1.67;;;0.30;99.90;;;;;;5027932;28;20472;-52
2021/12/03 03:27:31;;;;;;;3.33;1.20;;;0.30;99.90;;;;;;5030264;28;20045;-56
2021/12/03 03:29:58;;;;;;;2.25;1.30;;;0.30;99.90;;;;;;5026605;28;20142;-60
2021/12/03 03:32:23;;;;;;;2.00;1.20;;;0.30;99.90;;;;;;5026142;28;20057;-55
2021/12/03 03:34:49;;;;;;;3.50;1.40;;;0.30;99.90;;;;;;5030459;28;20065;-54
2021/12/03 03:37:15;;;;;;;6.28;1.50;;;0.20;99.90;;;;;;5044149;28;20044;-55
2021/12/03 03:39:43;;;;;;;3.60;1.15;;;0.30;99.90;;;;;;5046124;28;20028;-57
2021/12/03 03:42:08;;;;;;;3.17;0.93;;;0.30;99.90;;;;;;5009286;28;20461;-57
2021/12/03 03:44:34;;;;;;;4.75;1.42;;;0.40;99.90;;;;;;5025703;28;20029;-58
2021/12/03 03:47:01;;;;;;;4.75;1.27;;;0.40;99.90;;;;;;5028871;28;20564;-56
2021/12/03 03:49:27;;;;;;;3.42;1.15;;;0.40;99.90;;;;;;5026989;28;20041;-56
2021/12/03 03:51:54;;;;;;;0.90;0.80;;;0.40;99.90;;;;;;5034584;28;20063;-53
2021/12/03 03:54:20;;;;;;;1.35;1.23;;;0.40;99.90;;;;;;5048874;28;20021;-54
2021/12/03 03:56:46;;;;;;;3.42;1.33;;;0.30;99.90;;;;;;5046110;28;20033;-55
2021/12/03 03:59:17;;;;;;;1.83;1.15;;;0.30;99.90;;;;;;5046455;28;20025;-50
2021/12/03 04:01:47;;;;;;;2.30;1.20;;;0.30;99.90;;;;;;5048209;28;20025;-49
2021/12/03 04:04:13;;;;;;;2.47;1.63;;;0.30;99.90;;;;;;5040265;28;20029;-55
2021/12/03 04:06:39;;;;;;;2.92;1.77;;;0.30;99.90;;;;;;5028661;28;20063;-52
2021/12/03 04:09:06;;;;;;;3.83;2.60;;;0.30;99.90;;;;;;5028120;28;20089;-54
2021/12/03 04:11:32;;;;;;;5.95;2.97;;;0.30;99.90;;;;;;5031975;28;20423;-54
2021/12/03 04:13:57;;;;;;;5.32;3.40;;;0.30;99.90;;;;;;5046371;28;20098;-53
2021/12/03 04:16:23;;;;;;;5.47;2.88;;;0.30;99.90;;;;;;5028292;28;20022;-56
2021/12/03 04:18:48;;;;;;;3.70;3.10;;;0.30;99.90;;;;;;5032374;28;20144;-54
2021/12/03 04:21:16;;;;;;;5.93;2.95;;;0.30;99.90;;;;;;5047151;28;20036;-51
2021/12/03 04:23:42;;;;;;;6.22;3.15;;;0.40;99.90;;;;;;5038048;28;20123;-56
2021/12/03 04:26:08;;;;;;;4.63;3.00;;;0.40;99.90;;;;;;5047856;28;20052;-57
2021/12/03 04:28:34;;;;;;;5.63;3.38;;;0.30;99.90;;;;;;5047656;28;20037;-57
2021/12/03 04:31:00;;;;;;;5.07;4.00;;;0.40;99.90;;;;;;5044103;28;20037;-57
2021/12/03 04:33:26;;;;;;;5.72;4.25;;;0.40;99.90;;;;;;5038153;28;20033;-53
2021/12/03 04:35:52;;;;;;;6.00;4.10;;;0.40;99.90;;;;;;5029747;28;20037;-55
2021/12/03 04:38:19;;;;;;;6.65;4.95;;;0.40;99.90;;;;;;5027830;28;20086;-53
2021/12/03 04:40:45;;;;;;;8.30;4.38;;;0.40;99.90;;;;;;5031686;28;20032;-53
2021/12/03 04:43:11;;;;;;;6.15;4.60;;;0.40;99.90;;;;;;5041463;28;20036;-56
2021/12/03 04:45:37;;;;;;;8.57;4.97;;;0.40;99.90;;;;;;5029302;28;20045;-50
2021/12/03 04:48:04;;;;;;;5.32;4.28;;;0.40;99.90;;;;;;5045892;28;20029;-53
2021/12/03 04:50:35;;;;;;;7.22;4.10;;;0.30;99.90;;;;;;5046303;28;20052;-52
2021/12/03 04:53:01;;;;;;;4.75;4.35;;;0.30;99.90;;;;;;5045932;28;20024;-55
2021/12/03 04:55:27;;;;;;;6.68;4.40;;;0.30;99.90;;;;;;5045473;28;20135;-53
2021/12/03 04:57:53;;;;;;;7.53;3.83;;;0.20;99.90;;;;;;5050046;28;20029;-56
2021/12/03 05:00:39;;;;;;;5.43;4.88;;;0.20;99.90;;;;;;5049006;28;20029;-52
2021/12/03 05:03:07;;;;;;;5.53;3.70;;;0.20;99.90;;;;;;5045921;28;20567;-54
2021/12/03 05:05:34;;;;;;;4.18;3.78;;;0.20;99.90;;;;;;5018712;28;20038;-54
2021/12/03 05:08:10;;;;;;;5.90;3.88;;;0.20;99.90;;;;;;5031631;28;20068;-55
2021/12/03 05:10:41;;;;;;;4.32;3.78;;;0.20;99.90;;;;;;5032003;28;20017;-57
2021/12/03 05:13:08;;;;;;;5.85;4.03;;;0.20;99.90;;;;;;5024711;28;20546;-51
2021/12/03 05:15:34;;;;;;;5.03;4.05;;;0.20;99.90;;;;;;5011770;28;20033;-53
2021/12/03 05:18:00;;;;;;;6.07;4.15;;;0.20;99.90;;;;;;5011593;28;20026;-51
2021/12/03 05:20:27;;;;;;;4.45;3.78;;;0.30;99.90;;;;;;5012274;28;20033;-52
2021/12/03 05:22:53;;;;;;;6.38;4.25;;;0.30;99.90;;;;;;5018681;28;20025;-55
2021/12/03 05:25:20;;;;;;;4.68;4.18;;;0.30;99.90;;;;;;5030427;28;20025;-55
2021/12/03 05:27:46;;;;;;;4.95;3.17;;;0.30;99.90;;;;;;5024415;28;20026;-55
2021/12/03 05:30:12;;;;;;;5.40;3.60;;;0.30;99.90;;;;;;5023803;28;20025;-54
2021/12/03 05:32:38;;;;;;;5.32;3.40;;;0.30;99.90;;;;;;5034194;28;20116;-50
2021/12/03 05:35:05;;;;;;;5.88;3.63;;;0.30;99.90;;;;;;5041310;28;20116;-53
2021/12/03 05:37:31;;;;;;;4.60;3.45;;;0.30;99.90;;;;;;5050526;28;20083;-53
2021/12/03 05:39:56;;;;;;;7.18;4.07;;;0.30;99.90;;;;;;5050758;28;20033;-54
2021/12/03 05:42:22;;;;;;;4.03;3.30;;;0.30;99.90;;;;;;5050705;28;20037;-51
2021/12/03 05:44:47;;;;;;;5.72;3.70;;;0.30;99.90;;;;;;5033726;28;20077;-57
2021/12/03 05:47:13;;;;;;;7.57;3.83;;;0.20;99.90;;;;;;5031256;28;20033;-54
2021/12/03 05:49:38;;;;;;;6.90;3.78;;;0.20;99.90;;;;;;5030763;28;20042;-55
2021/12/03 05:52:05;;;;;;;6.00;3.95;;;0.30;99.90;;;;;;5047465;28;20641;-52
2021/12/03 05:54:31;;;;;;;5.10;4.40;;;0.30;99.90;;;;;;5046165;28;20104;-51
2021/12/03 05:56:56;;;;;;;3.83;3.53;;;0.30;99.90;;;;;;5048964;28;20033;-52
2021/12/03 05:59:22;;;;;;;5.50;4.13;;;0.30;99.90;;;;;;5049147;28;20580;-49
2021/12/03 06:01:48;;;;;;;7.05;3.67;;;0.30;99.90;;;;;;5050666;28;20048;-53
2021/12/03 06:04:13;;;;;;;5.50;4.07;;;0.30;99.90;;;;;;5041003;28;20025;-53
2021/12/03 06:06:39;;;;;;;4.90;3.92;;;0.30;99.90;;;;;;5030281;28;20185;-52
2021/12/03 06:09:05;;;;;;;8.40;4.32;;;0.30;99.90;;;;;;5024763;28;20033;-54
2021/12/03 06:11:30;;;;;;;4.35;3.92;;;0.20;99.90;;;;;;5030782;28;20159;-56
2021/12/03 06:13:56;;;;;;;7.97;4.57;;;0.20;99.90;;;;;;5040686;28;20040;-54
2021/12/03 06:16:22;;;;;;;6.78;4.63;;;0.20;99.90;;;;;;5050387;28;20032;-56
2021/12/03 06:18:47;;;;;;;5.00;4.50;;;0.20;99.90;;;;;;5049615;28;20035;-56
2021/12/03 06:21:14;;;;;;;6.65;4.60;;;0.20;99.90;;;;;;5048445;28;20037;-57
2021/12/03 06:23:40;;;;;;;5.60;4.68;;;0.20;99.90;;;;;;5056242;28;20037;-51
2021/12/03 06:26:07;;;;;;;6.07;4.65;;;0.10;99.90;;;;;;5030527;28;20494;-53
2021/12/03 06:28:35;;;;;;;8.32;5.57;;;0.10;99.90;;;;;;5030118;28;20036;-53
2021/12/03 06:31:00;;;;;;;9.27;4.72;;;0.10;99.90;;;;;;5044898;28;20049;-54
2021/12/03 06:33:26;;;;;;;9.57;5.03;;;0.10;99.90;;;;;;5041000;28;20473;-55
2021/12/03 06:35:52;;;;;;;6.80;5.28;;;0.10;99.90;;;;;;5049800;28;20052;-54
2021/12/03 06:38:18;;;;;;;8.13;4.95;;;0.10;99.90;;;;;;5049468;28;20475;-51
2021/12/03 06:40:44;;;;;;;8.00;5.38;;;0.20;99.90;;;;;;5031996;28;20030;-56
2021/12/03 06:43:10;;;;;;;7.32;5.22;;;0.20;99.90;;;;;;5032679;28;20029;-51
2021/12/03 06:45:37;;;;;;;8.98;5.85;;;0.20;99.90;;;;;;5048374;28;20115;-53
2021/12/03 06:48:02;;;;;;;6.88;5.25;;;0.20;99.90;;;;;;5042902;28;20099;-55
2021/12/03 06:50:31;;;;;;;5.88;4.85;;;0.20;99.90;;;;;;5045178;28;20041;-53
2021/12/03 06:53:02;;;;;;;7.45;5.13;;;0.20;99.90;;;;;;5030619;28;20033;-53
2021/12/03 06:55:36;;;;;;;8.73;5.40;;;0.20;99.90;;;;;;5047228;28;20500;-55
2021/12/03 06:58:02;;;;;;;6.20;5.60;;;0.20;99.90;;;;;;5038459;28;20049;-55
2021/12/03 07:00:27;;;;;;;10.13;4.90;;;0.20;99.90;;;;;;5036765;28;20068;-51
2021/12/03 07:02:53;;;;;;;5.78;4.72;;;0.20;99.90;;;;;;5054216;28;20037;-55
2021/12/03 07:05:18;;;;;;;8.07;5.60;;;0.20;99.90;;;;;;5029788;28;20452;-55
2021/12/03 07:07:46;;;;;;;7.93;5.00;;;0.20;99.90;;;;;;5044413;28;20029;-53
2021/12/03 07:10:11;;;;;;;5.43;4.90;;;0.20;99.90;;;;;;5029686;28;20026;-52
2021/12/03 07:12:37;;;;;;;5.35;4.75;;;0.20;99.90;;;;;;5028060;28;20611;-57
2021/12/03 07:15:03;;;;;;;9.18;4.90;;;0.20;99.90;;;;;;5048527;28;20508;-53
2021/12/03 07:17:33;;;;;;;5.32;4.65;;;0.20;99.90;;;;;;5049126;28;20108;-53
2021/12/03 07:19:59;;;;;;;5.38;4.88;;;0.20;99.90;;;;;;5061563;28;20040;-56
2021/12/03 07:22:26;;;;;;;8.77;5.80;;;0.30;99.90;;;;;;5049297;28;20523;-54
2021/12/03 07:24:52;;;;;;;7.57;5.80;;;0.20;99.90;;;;;;5030064;28;20120;-56
2021/12/03 07:27:18;;;;;;;9.27;5.80;;;0.20;99.90;;;;;;5029097;28;20180;-52
2021/12/03 07:29:49;;;;;;;7.68;5.95;;;0.30;99.90;;;;;;5033044;28;20041;-56
2021/12/03 07:32:20;;;;;;;7.22;6.18;;;0.20;99.90;;;;;;5047192;28;20037;-56
2021/12/03 07:34:46;;;;;;;7.55;5.85;;;0.20;99.90;;;;;;5048981;28;20429;-53
2021/12/03 07:37:12;;;;;;;10.40;5.55;;;0.20;99.90;;;;;;5045719;28;20025;-55
2021/12/03 07:39:39;;;;;;;7.45;6.20;;;0.20;99.90;;;;;;5028892;28;20038;-52
2021/12/03 07:42:05;;;;;;;8.35;7.18;;;0.20;99.90;;;;;;5027704;28;20087;-55
2021/12/03 07:44:31;;;;;;;8.70;6.55;;;0.10;99.90;;;;;;5028736;28;20037;-52
2021/12/03 07:46:57;;;;;;;6.72;5.68;;;0.10;99.90;;;;;;5029116;28;20044;-51
2021/12/03 07:49:24;;;;;;;8.32;6.80;;;0.10;99.90;;;;;;5028698;28;20025;-52
2021/12/03 07:51:50;;;;;;;11.68;6.90;;;0.10;99.90;;;;;;5028875;28;20025;-59
2021/12/03 07:54:17;;;;;;;8.32;7.13;;;0.10;99.90;;;;;;5028683;28;20097;-56
2021/12/03 07:56:43;;;;;;;8.55;7.22;;;0.10;99.90;;;;;;5028606;28;20029;-55
2021/12/03 07:59:08;;;;;;;8.80;7.35;;;0.10;99.90;;;;;;5034332;28;20095;-51
2021/12/03 08:01:34;;;;;;;11.70;7.57;;;0.10;99.90;;;;;;5042690;28;20044;-56
2021/12/03 08:04:00;;;;;;;8.80;7.20;;;0.10;99.90;;;;;;5032740;28;20034;-57
2021/12/03 08:06:25;;;;;;;11.57;7.60;;;0.10;99.90;;;;;;5027272;28;20036;-54
2021/12/03 08:08:51;;;;;;;9.25;7.35;;;0.10;99.90;;;;;;5026851;28;20758;-57
2021/12/03 08:11:17;;;;;;;10.55;7.78;;;0.10;99.90;;;;;;5026818;28;20029;-55
2021/12/03 08:13:42;;;;;;;12.10;8.10;;;0.10;99.90;;;;;;5031800;28;20034;-57
2021/12/03 08:16:09;;;;;;;9.30;7.30;;;0.10;99.90;;;;;;5030878;28;20504;-53
2021/12/03 08:18:35;;;;;;;10.40;7.78;;;0.10;99.90;;;;;;5028335;28;20029;-56
2021/12/03 08:21:03;;;;;;;10.05;8.43;;;0.10;99.90;;;;;;5028370;28;20045;-58
2021/12/03 08:23:28;;;;;;;10.07;7.38;;;0.10;99.90;;;;;;5026749;28;20056;-55
2021/12/03 08:25:54;;;;;;;9.80;8.13;;;0.10;99.90;;;;;;5028112;28;20064;-53
2021/12/03 08:28:20;;;;;;;10.15;8.32;;;0.10;99.90;;;;;;5027145;28;20096;-57
2021/12/03 08:30:45;;;;;;;9.02;7.68;;;0.20;99.90;;;;;;5028055;28;20029;-57
2021/12/03 08:33:11;;;;;;;11.52;8.40;;;0.20;99.90;;;;;;5028151;28;20060;-57
2021/12/03 08:35:37;;;;;;;10.20;8.80;;;0.20;99.90;;;;;;5027184;28;20488;-58
2021/12/03 08:38:03;;;;;;;11.40;8.18;;;0.20;99.90;;;;;;5041745;28;20041;-51
2021/12/03 08:40:28;;;;;;;11.00;8.35;;;0.20;99.90;;;;;;5039350;28;20017;-54
2021/12/03 08:42:54;;;;;;;12.38;9.38;;;0.30;99.90;;;;;;5026733;28;20030;-56
2021/12/03 08:45:21;;;;;;;9.80;7.78;;;0.30;99.90;;;;;;5028082;28;20029;-58
2021/12/03 08:47:54;;;;;;;12.30;8.27;;;0.30;99.90;;;;;;5027554;28;20057;-53
2021/12/03 08:50:28;;;;;;;9.63;8.68;;;0.30;99.90;;;;;;5030404;28;20508;-55
2021/12/03 08:55:40;;;;;;;13.02;9.13;;;0.40;99.90;;;;;;5039873;28;20032;-59
2021/12/03 08:58:07;;;;;;;10.35;8.52;;;0.50;99.90;;;;;;5037671;28;20064;-56
2021/12/03 09:00:33;;;;;;;10.13;8.02;;;0.50;99.90;;;;;;5030395;28;20036;-55
2021/12/03 09:02:59;;;;;;;11.15;8.77;;;0.60;99.90;;;;;;5047637;28;20064;-52
2021/12/03 09:05:29;;;;;;;10.80;9.70;;;0.60;99.90;;;;;;5047491;28;20078;-55
2021/12/03 09:07:55;;;;;;;13.52;9.15;;;0.70;99.90;;;;;;5047511;28;20032;-57
2021/12/03 09:10:20;;;;;;;13.80;9.80;;;0.70;99.90;;;;;;5047106;28;20037;-53
2021/12/03 09:12:46;;;;;;;12.65;10.23;;;0.80;99.90;;;;;;5046396;28;20032;-56
2021/12/03 09:15:15;;;;;;;15.50;9.95;;;0.80;99.90;;;;;;5047188;28;20035;-56
2021/12/03 09:22:53;;;;;;;14.13;10.07;;;1.00;99.90;;;;;;5048163;28;20029;-51
2021/12/03 09:25:36;;;;;;;15.40;10.35;;;1.10;99.90;;;;;;5047610;28;20147;-53
2021/12/03 09:28:05;;;;;;;14.70;9.93;;;1.20;99.90;;;;;;5047485;28;20025;-54
2021/12/03 09:30:40;;;;;;;15.18;9.93;;;1.20;99.90;;;;;;5047842;28;20187;-55
2021/12/03 09:33:08;;;;;;;14.48;10.20;;;1.30;99.90;;;;;;5047579;28;20429;-54
2021/12/03 09:35:40;;;;;;;11.27;10.10;;;1.30;99.90;;;;;;5047828;28;20028;-52
2021/12/03 09:38:06;;;;;;;14.90;10.60;;;1.30;99.90;;;;;;5047564;28;20025;-53
2021/12/03 09:40:35;;;;;;;13.18;11.00;;;1.40;99.90;;;;;;5047520;28;20162;-54
2021/12/03 09:43:01;;;;;;;13.20;10.65;;;1.50;99.90;;;;;;5048739;28;20032;-53
2021/12/03 09:45:28;;;;;;;18.38;11.25;;;1.50;99.90;;;;;;5051207;28;20075;-52
2021/12/03 09:47:54;;;;;;;12.98;10.60;;;1.50;99.90;;;;;;5050822;28;20036;-55
2021/12/03 09:50:19;;;;;;;14.55;11.20;;;1.40;99.90;;;;;;5032175;28;20033;-52
2021/12/03 09:53:13;;;;;;;14.95;10.80;;;1.40;99.90;;;;;;5032324;28;20110;-57
2021/12/03 09:55:39;;;;;;;19.67;11.90;;;1.40;99.90;;;;;;5051121;28;20033;-55
2021/12/03 09:58:22;;;;;;;17.45;12.63;;;1.30;99.90;;;;;;5039417;28;20052;-50
2021/12/03 10:01:00;;;;;;;14.07;11.70;;;1.30;99.90;;;;;;5031014;28;20117;-50
2021/12/03 10:03:54;;;;;;;16.45;12.15;;;1.30;99.90;;;;;;5042935;28;20033;-52
2021/12/03 10:12:51;;;;;;;18.92;13.50;;;1.30;99.90;;;;;;5049076;28;20025;-56
2021/12/03 10:18:18;;;;;;;18.55;13.35;;;1.30;99.90;;;;;;5031753;28;20502;-58
2021/12/03 10:20:44;;;;;;;20.27;14.05;;;1.30;99.90;;;;;;5030044;28;20049;-51
2021/12/03 10:29:41;;;;;;;24.27;15.27;;;1.30;99.90;;;;;;5030543;28;20032;-55
2021/12/03 10:37:04;;;;;;;25.75;16.85;;;1.30;99.90;;;;;;5024299;28;20476;-51
2021/12/03 10:42:39;;;;;;;23.17;14.50;;;1.30;99.90;;;;;;5032289;28;20111;-51
2021/12/03 10:45:38;;;;;;;25.45;16.45;;;1.30;99.90;;;;;;5024278;28;20085;-53
2021/12/03 10:48:24;;;;;;;22.38;15.80;;;1.30;99.90;;;;;;5025118;28;20025;-53
2021/12/03 10:51:07;;;;;;;20.40;15.07;;;1.30;99.90;;;;;;5030256;28;20037;-52
2021/12/03 10:53:39;;;;;;;21.27;15.90;;;1.30;99.90;;;;;;5044209;28;20029;-51
2021/12/03 11:35:09;;;;;;;27.00;16.70;;;1.60;99.90;;;;;;5048385;28;20583;-52
2021/12/03 13:07:15;;;;;;;38.67;20.58;;;1.90;99.90;;;;;;5047927;28;20167;-54
2021/12/03 14:12:15;;;;;;;27.58;15.85;;;2.10;99.90;;;;;;5030691;28;20056;-55
2021/12/03 14:50:09;;;;;;;27.35;15.73;;;1.60;99.90;;;;;;5049884;28;20126;-52
2021/12/03 14:55:08;;;;;;;34.30;16.80;;;1.50;99.90;;;;;;5050596;28;20022;-49
2021/12/03 15:00:22;;;;;;;32.55;17.95;;;1.50;99.90;;;;;;5029593;28;20468;-50
2021/12/03 15:05:45;;;;;;;27.35;16.67;;;1.50;99.90;;;;;;5032460;28;20032;-52
2021/12/03 15:08:15;;;;;;;27.70;16.88;;;1.50;99.90;;;;;;5049669;28;20104;-54
2021/12/03 15:11:00;;;;;;;28.95;16.95;;;1.50;99.90;;;;;;5049442;28;20388;-52
2021/12/03 15:17:11;;;;;;;29.20;17.65;;;1.40;99.90;;;;;;5050013;28;20035;-51
2021/12/03 15:24:37;;;;;;;40.92;20.40;;;1.40;99.90;;;;;;5043953;28;20048;-51
2021/12/03 15:32:40;;;;;;;24.02;16.42;;;1.40;99.90;;;;;;5013632;28;20044;-49
2021/12/03 16:05:28;;;;;;;16.42;10.75;;;1.20;99.90;;;;;;5028908;28;20070;-48
2021/12/03 16:08:03;;;;;;;18.30;11.35;;;1.20;99.90;;;;;;5026945;28;20034;-50
2021/12/03 16:13:33;;;;;;;18.23;11.25;;;1.20;99.90;;;;;;5033498;28;20107;-53
2021/12/03 16:24:41;;;;;;;16.85;10.95;;;1.30;99.90;;;;;;5028056;28;20079;-51
2021/12/03 16:30:55;;;;;;;13.00;9.80;;;1.30;99.90;;;;;;5026269;28;20444;-55
2021/12/03 16:46:24;;;;;;;15.63;9.82;;;1.50;99.90;;;;;;5030841;28;20033;-51
2021/12/03 16:51:41;;;;;;;13.77;10.38;;;1.50;99.90;;;;;;5028243;28;20041;-47
2021/12/03 16:54:11;;;;;;;14.65;10.35;;;1.50;99.90;;;;;;5031420;28;20025;-59
2021/12/03 16:56:47;;;;;;;16.25;10.63;;;1.50;99.90;;;;;;5020740;28;20042;-47
2021/12/03 16:59:14;;;;;;;12.65;10.48;;;1.60;99.90;;;;;;5028155;28;20094;-50
2021/12/03 17:01:51;;;;;;;13.65;10.05;;;1.60;99.90;;;;;;5034937;28;20738;-51
2021/12/03 17:21:29;;;;;;;10.68;9.55;;;1.60;99.90;;;;;;5051471;28;20025;-50
2021/12/03 17:27:30;;;;;;;19.80;13.23;;;1.60;99.90;;;;;;5035522;28;20137;-48
2021/12/03 17:44:20;;;;;;;12.85;9.85;;;1.50;99.90;;;;;;4999192;28;20053;-51
2021/12/03 17:54:04;;;;;;;15.75;9.40;;;1.70;99.90;;;;;;5038187;28;20086;-51
2021/12/03 17:56:34;;;;;;;12.45;10.25;;;1.70;99.90;;;;;;5032543;28;20028;-52
2021/12/03 18:01:49;;;;;;;13.07;9.55;;;1.70;99.90;;;;;;5027218;28;20030;-54
2021/12/03 18:12:51;;;;;;;14.53;10.03;;;1.80;99.90;;;;;;4990114;28;20481;-48
2021/12/03 18:47:50;;;;;;;11.60;9.38;;;2.10;99.90;;;;;;4999397;28;20050;-47
2021/12/03 18:57:57;;;;;;;15.10;11.63;;;2.20;99.90;;;;;;5048150;28;20481;-49
2021/12/03 19:00:27;;;;;;;15.02;13.43;;;2.20;99.90;;;;;;5049556;28;20086;-52
2021/12/03 19:02:55;;;;;;;14.48;11.82;;;2.20;99.90;;;;;;5048694;28;20025;-50
2021/12/03 19:05:32;;;;;;;14.75;13.15;;;2.30;99.90;;;;;;5048549;28;20090;-50
2021/12/03 19:10:28;;;;;;;14.63;12.77;;;2.30;99.90;;;;;;5049659;28;20549;-49
2021/12/03 19:13:04;;;;;;;15.80;11.73;;;2.30;99.90;;;;;;5043783;28;20485;-52
2021/12/03 19:15:30;;;;;;;16.90;13.88;;;2.30;99.90;;;;;;5047227;28;20033;-51
2021/12/03 19:18:00;;;;;;;14.95;11.95;;;2.40;99.90;;;;;;5038560;28;20489;-48
2021/12/03 19:20:28;;;;;;;14.82;12.35;;;2.40;99.90;;;;;;5045176;28;20116;-49
2021/12/03 19:22:53;;;;;;;14.02;11.77;;;2.40;99.90;;;;;;5045784;28;20040;-49
2021/12/03 19:25:19;;;;;;;13.98;12.48;;;2.40;99.90;;;;;;5047137;28;20028;-54
2021/12/03 19:27:45;;;;;;;13.98;11.07;;;2.50;99.90;;;;;;5043687;28;20246;-54
2021/12/03 19:30:11;;;;;;;14.70;11.80;;;2.50;99.90;;;;;;5026244;28;20029;-50
2021/12/03 19:32:37;;;;;;;12.43;11.07;;;2.50;99.90;;;;;;5028066;28;20021;-54
2021/12/03 19:35:04;;;;;;;14.55;11.13;;;2.50;99.90;;;;;;5043228;28;20025;-57
2021/12/03 19:37:29;;;;;;;13.40;11.40;;;2.60;99.90;;;;;;5048457;28;20033;-53
2021/12/03 19:39:58;;;;;;;14.80;10.75;;;2.60;99.90;;;;;;5047184;28;20457;-48
2021/12/03 19:42:31;;;;;;;16.65;12.50;;;2.60;99.90;;;;;;5042883;28;20030;-51
2021/12/03 19:45:00;;;;;;;12.18;10.98;;;2.60;99.90;;;;;;5048249;28;20044;-49
2021/12/03 19:48:12;;;;;;;13.38;10.57;;;2.50;99.90;;;;;;5048307;28;20029;-50
2021/12/03 19:53:00;;;;;;;15.35;12.10;;;2.60;99.90;;;;;;5048857;28;20029;-50
2021/12/03 19:55:27;;;;;;;14.27;10.75;;;2.60;99.90;;;;;;5036850;28;20064;-54
2021/12/03 19:57:52;;;;;;;13.25;10.57;;;2.60;99.90;;;;;;5028509;28;20031;-52
2021/12/03 20:00:18;;;;;;;16.38;11.23;;;2.60;99.90;;;;;;5030043;28;20460;-56
2021/12/03 20:02:44;;;;;;;13.10;11.07;;;2.70;99.90;;;;;;5028880;28;20099;-56
2021/12/03 20:05:10;;;;;;;12.88;11.02;;;2.70;99.90;;;;;;5029703;28;20529;-57
2021/12/03 20:07:36;;;;;;;13.80;11.13;;;2.70;99.90;;;;;;5028493;28;20029;-49
2021/12/03 20:10:10;;;;;;;13.65;11.63;;;2.70;99.90;;;;;;5046625;28;20025;-48
2021/12/03 20:12:36;;;;;;;14.13;12.13;;;2.70;99.90;;;;;;5048892;28;20028;-48
2021/12/03 20:15:07;;;;;;;15.30;12.05;;;2.70;99.90;;;;;;5047917;28;20025;-53